Terminal Aerodrome Forecast
Issued by NWS Shreveport, LA

Home | Current Version | Previous Version | Text Only | Print | Product List | Glossary On
Versions: 1 2 3 4 5 6 7 8 9 10 11 12 13
036
FTUS44 KSHV 261727
TAFLFK
TAF
KLFK 261727Z 2618/2718 25006KT P6SM VCTS SCT035CB BKN250
     FM262000 20005KT P6SM BKN050
     FM270100 VRB03KT P6SM SCT040 SCT250
     FM271000 00000KT 4SM BR SCT015 SCT040=

USA.gov is the U.S. government's official web portal to all federal, state and local government web resources and services.